Time;durP1;ratioP1;P1;durP2;ratioP2;P2;SDS_P1;SDS_P2;PMS_P1;PMS_P2;Temp;Humidity;BMP_temperature;BMP_pressure;BME280_temperature;BME280_humidity;BME280_pressure;Samples;Min_cycle;Max_cycle;Signal;HPM_P1;HPM_P2
2022/11/19 00:01:53;;;;;;;5.47;2.80;;;0.90;99.90;;;;;;4254054;27;20054;-84
2022/11/19 00:03:57;;;;;;;4.72;2.80;;;0.80;99.90;;;;;;4219742;28;20040;-84
2022/11/19 00:06:11;;;;;;;3.47;2.38;;;0.80;99.90;;;;;;4237010;28;20131;-84
2022/11/19 00:08:16;;;;;;;4.75;2.45;;;0.80;99.90;;;;;;4220692;28;20040;-85
2022/11/19 00:10:17;;;;;;;4.28;2.10;;;0.80;99.90;;;;;;4255633;27;20043;-84
2022/11/19 00:14:39;;;;;;;10.68;2.80;;;0.80;99.90;;;;;;4220134;28;20040;-84
2022/11/19 00:16:42;;;;;;;5.60;2.47;;;0.70;99.90;;;;;;4232518;28;20062;-84
2022/11/19 00:18:52;;;;;;;3.22;2.00;;;1.20;99.90;;;;;;4237776;28;20534;-84
2022/11/19 00:20:54;;;;;;;5.35;2.80;;;0.70;99.90;;;;;;4254787;27;20054;-85
2022/11/19 00:22:56;;;;;;;4.32;2.35;;;0.90;99.90;;;;;;4256147;27;20055;-85
2022/11/19 00:25:03;;;;;;;3.47;1.98;;;0.70;99.90;;;;;;4221120;28;20511;-84
2022/11/19 00:27:07;;;;;;;3.20;1.98;;;0.70;99.90;;;;;;4253784;27;20050;-84
2022/11/19 00:29:11;;;;;;;4.35;2.15;;;0.80;99.90;;;;;;4237783;28;20107;-84
2022/11/19 00:31:14;;;;;;;5.13;2.22;;;0.60;99.90;;;;;;4220330;28;20056;-83
2022/11/19 00:33:16;;;;;;;4.85;2.15;;;0.60;99.90;;;;;;4220636;28;20089;-84
2022/11/19 00:35:17;;;;;;;6.03;2.65;;;0.60;99.90;;;;;;4236764;28;20048;-84
2022/11/19 00:37:18;;;;;;;4.47;2.42;;;0.60;99.90;;;;;;4220484;28;20055;-85
2022/11/19 00:39:19;;;;;;;4.43;2.67;;;0.60;99.90;;;;;;4221033;28;20163;-84
2022/11/19 00:41:28;;;;;;;6.20;2.70;;;0.70;99.90;;;;;;4253589;27;20483;-84
2022/11/19 00:43:48;;;;;;;4.80;2.88;;;0.50;99.90;;;;;;4256033;27;20047;-84
2022/11/19 00:45:49;;;;;;;5.07;2.40;;;0.50;99.90;;;;;;4221342;28;20081;-84
2022/11/19 00:47:51;;;;;;;5.97;2.67;;;0.40;99.90;;;;;;4237515;28;20044;-84
2022/11/19 00:49:51;;;;;;;5.78;2.47;;;1.10;99.90;;;;;;4221447;28;20052;-84
2022/11/19 00:51:54;;;;;;;4.72;2.35;;;0.90;99.90;;;;;;4221036;28;20059;-83
2022/11/19 00:53:56;;;;;;;4.95;2.60;;;0.30;99.90;;;;;;4222265;28;20373;-83
2022/11/19 00:56:01;;;;;;;8.80;3.35;;;1.30;99.90;;;;;;4256025;27;20099;-84
2022/11/19 00:58:02;;;;;;;6.07;3.00;;;0.30;99.90;;;;;;4235656;28;20094;-84
2022/11/19 01:00:03;;;;;;;6.30;3.30;;;0.20;99.90;;;;;;4249974;27;20487;-84
2022/11/19 01:02:04;;;;;;;5.00;2.78;;;0.20;99.90;;;;;;4222164;28;20052;-84
2022/11/19 01:04:06;;;;;;;5.25;2.72;;;0.60;99.90;;;;;;4237999;28;20054;-84
2022/11/19 01:06:08;;;;;;;5.93;2.85;;;0.10;99.90;;;;;;4221645;28;20412;-84
2022/11/19 01:08:13;;;;;;;5.80;2.60;;;0.90;99.90;;;;;;4256292;27;20058;-84
2022/11/19 01:10:17;;;;;;;5.50;3.35;;;1.00;99.90;;;;;;4239198;28;20094;-84
2022/11/19 01:12:18;;;;;;;6.22;3.72;;;0.10;99.90;;;;;;4221013;28;20048;-84
2022/11/19 01:14:19;;;;;;;4.70;2.58;;;0.10;99.90;;;;;;4257760;27;20208;-84
2022/11/19 01:16:33;;;;;;;5.88;2.85;;;0.10;99.90;;;;;;4255509;27;20043;-83
2022/11/19 01:18:37;;;;;;;5.07;3.03;;;0.30;99.90;;;;;;4224288;28;20056;-83
2022/11/19 01:20:45;;;;;;;6.80;2.78;;;0.10;99.90;;;;;;4221761;28;20411;-83
2022/11/19 01:22:57;;;;;;;4.65;2.78;;;0.10;99.90;;;;;;4240077;28;20117;-83
2022/11/19 01:25:05;;;;;;;4.85;2.85;;;0.10;99.90;;;;;;4239588;28;20500;-83
2022/11/19 01:27:07;;;;;;;12.02;2.90;;;0.10;99.90;;;;;;4228529;28;20127;-83
2022/11/19 01:29:10;;;;;;;5.88;3.25;;;0.10;99.90;;;;;;4222797;28;20047;-83
2022/11/19 01:31:23;;;;;;;5.68;2.70;;;0.10;99.90;;;;;;4254538;27;20043;-83
2022/11/19 01:33:28;;;;;;;4.55;2.45;;;0.10;99.90;;;;;;4245611;28;20044;-83
2022/11/19 01:35:33;;;;;;;5.25;2.53;;;0.10;99.90;;;;;;4262823;27;20058;-83
2022/11/19 01:37:35;;;;;;;10.25;3.72;;;0.10;99.90;;;;;;4244313;28;20077;-83
2022/11/19 01:39:38;;;;;;;6.30;3.25;;;0.60;99.90;;;;;;4263365;27;20122;-84
2022/11/19 01:41:38;;;;;;;5.45;2.75;;;0.10;99.90;;;;;;4244566;28;20052;-83
2022/11/19 01:44:00;;;;;;;5.50;2.83;;;0.10;99.90;;;;;;4262237;27;20043;-84
2022/11/19 01:46:06;;;;;;;5.40;2.88;;;0.10;99.90;;;;;;4262755;27;20392;-84
2022/11/19 01:48:21;;;;;;;4.88;2.53;;;0.10;99.90;;;;;;4243610;28;20048;-83
2022/11/19 01:50:25;;;;;;;6.70;3.20;;;0.10;99.90;;;;;;4263226;27;20042;-83
2022/11/19 01:52:28;;;;;;;8.65;3.83;;;0.00;99.90;;;;;;4245080;28;20048;-83
2022/11/19 01:54:49;;;;;;;6.90;3.47;;;0.00;99.90;;;;;;4245911;28;20040;-83
2022/11/19 01:57:00;;;;;;;6.15;3.38;;;0.00;99.90;;;;;;4256239;27;20047;-83
2022/11/19 01:59:14;;;;;;;7.20;3.85;;;0.00;99.90;;;;;;4245026;28;20058;-84
2022/11/19 02:01:22;;;;;;;4.93;2.97;;;-0.10;99.90;;;;;;4262330;27;20099;-84
2022/11/19 02:03:25;;;;;;;7.32;3.40;;;-0.10;99.90;;;;;;4263460;27;20107;-83
2022/11/19 02:05:27;;;;;;;7.00;3.60;;;-0.10;99.90;;;;;;4262540;27;20047;-83
2022/11/19 02:07:34;;;;;;;7.40;3.63;;;-0.10;99.90;;;;;;4228122;28;20543;-84
2022/11/19 02:09:40;;;;;;;6.20;3.05;;;-0.20;99.90;;;;;;4263780;27;20103;-84
2022/11/19 02:11:56;;;;;;;5.97;3.10;;;-0.20;99.90;;;;;;4244784;28;20164;-83
2022/11/19 02:14:14;;;;;;;7.50;3.38;;;-0.20;99.90;;;;;;4263470;27;20073;-84
2022/11/19 02:16:36;;;;;;;9.45;4.45;;;-0.30;99.90;;;;;;4229002;28;20052;-84
2022/11/19 02:19:15;;;;;;;8.10;3.97;;;-0.30;99.90;;;;;;4228785;28;20052;-84
2022/11/19 02:21:48;;;;;;;5.78;3.70;;;-0.30;99.90;;;;;;4246126;28;20048;-83
2022/11/19 02:24:33;;;;;;;6.35;3.38;;;-0.40;99.90;;;;;;4229295;28;20103;-83
2022/11/19 02:27:04;;;;;;;6.32;3.00;;;-0.40;99.90;;;;;;4246454;27;20427;-83
2022/11/19 02:29:23;;;;;;;7.43;3.47;;;-0.50;99.90;;;;;;4247182;28;20048;-84
2022/11/19 02:31:30;;;;;;;10.05;3.05;;;-0.50;99.90;;;;;;4229385;28;20119;-83
2022/11/19 02:33:38;;;;;;;5.97;3.08;;;-0.50;99.90;;;;;;4265064;27;20054;-83
2022/11/19 02:35:51;;;;;;;5.90;2.90;;;-0.60;99.90;;;;;;4229438;28;20052;-83
2022/11/19 02:38:06;;;;;;;6.15;2.90;;;-0.60;99.90;;;;;;4245848;28;20070;-84
2022/11/19 02:40:41;;;;;;;6.05;2.90;;;-0.60;99.90;;;;;;4225885;28;20463;-84
2022/11/19 02:42:55;;;;;;;6.63;3.13;;;-0.60;99.90;;;;;;4213181;28;20048;-84
2022/11/19 02:45:08;;;;;;;7.40;3.35;;;-0.60;99.90;;;;;;4241626;28;20051;-83
2022/11/19 02:47:21;;;;;;;6.45;2.92;;;-0.70;99.90;;;;;;4261905;27;20047;-83
2022/11/19 02:49:32;;;;;;;5.88;3.10;;;-0.70;99.90;;;;;;4236748;28;20055;-84
2022/11/19 02:51:36;;;;;;;4.82;2.80;;;0.00;99.90;;;;;;4262396;27;20539;-84
2022/11/19 02:53:37;;;;;;;8.63;3.45;;;-0.70;99.90;;;;;;4226963;28;20047;-84
2022/11/19 02:55:40;;;;;;;6.85;3.53;;;-0.70;99.90;;;;;;4227707;28;20104;-83
2022/11/19 02:58:08;;;;;;;8.05;3.30;;;-0.70;99.90;;;;;;4243119;28;20086;-84
2022/11/19 03:05:00;;;;;;;8.90;3.97;;;-0.80;99.90;;;;;;4238211;28;20044;-83
2022/11/19 03:07:14;;;;;;;7.65;3.15;;;-0.80;99.90;;;;;;4262573;27;20107;-84
2022/11/19 03:09:16;;;;;;;8.65;3.55;;;-0.90;99.90;;;;;;4261317;27;20179;-84
2022/11/19 03:11:26;;;;;;;7.18;3.53;;;-0.90;99.90;;;;;;4242465;27;20050;-84
2022/11/19 03:18:33;;;;;;;5.80;3.20;;;-0.90;99.90;;;;;;4260554;27;20051;-83
2022/11/19 03:21:22;;;;;;;7.32;3.22;;;-1.00;99.90;;;;;;4261299;27;20047;-83
2022/11/19 03:23:31;;;;;;;7.53;3.83;;;-1.00;99.90;;;;;;4224709;28;20056;-83
2022/11/19 03:25:44;;;;;;;7.25;3.00;;;-1.00;99.90;;;;;;4233473;28;20090;-83
2022/11/19 03:27:55;;;;;;;7.60;3.42;;;-1.00;99.90;;;;;;4225910;28;20056;-83
2022/11/19 03:30:02;;;;;;;6.72;2.95;;;-1.00;99.90;;;;;;4222596;28;20488;-82
2022/11/19 03:32:12;;;;;;;6.93;3.13;;;-1.10;99.90;;;;;;4242246;28;20055;-83
2022/11/19 03:34:22;;;;;;;9.15;3.72;;;-1.10;99.90;;;;;;4238097;28;20108;-83
2022/11/19 03:36:31;;;;;;;7.22;3.85;;;-0.90;99.90;;;;;;4261556;27;20475;-83
2022/11/19 03:38:49;;;;;;;6.63;3.05;;;-1.10;99.90;;;;;;4259641;27;20055;-82
2022/11/19 03:40:56;;;;;;;7.57;3.45;;;-1.10;99.90;;;;;;4260633;27;20039;-83
2022/11/19 03:43:03;;;;;;;7.43;3.67;;;-1.20;99.90;;;;;;4226397;28;20052;-83
2022/11/19 03:45:16;;;;;;;6.55;3.30;;;-1.20;99.90;;;;;;4244408;28;20051;-82
2022/11/19 03:47:34;;;;;;;6.93;3.10;;;-1.20;99.90;;;;;;4261389;27;20118;-83
2022/11/19 03:49:53;;;;;;;6.55;3.50;;;-1.20;99.90;;;;;;4243287;27;20055;-83
2022/11/19 03:52:05;;;;;;;6.10;3.25;;;-1.20;99.90;;;;;;4260498;27;20195;-83
2022/11/19 03:54:14;;;;;;;7.47;3.33;;;-1.20;99.90;;;;;;4257842;27;20100;-83
2022/11/19 03:56:20;;;;;;;7.40;3.00;;;-1.20;99.90;;;;;;4241995;28;20435;-83
2022/11/19 03:58:26;;;;;;;5.97;3.10;;;-1.30;99.90;;;;;;4260305;27;20053;-83
2022/11/19 04:00:40;;;;;;;;;;;-1.20;99.90;;;;;;4240913;28;20125;-83
2022/11/19 04:02:42;;;;;;;6.43;3.35;;;-1.30;99.90;;;;;;4239974;28;19920;-83
2022/11/19 04:04:47;;;;;;;7.78;3.38;;;-1.30;99.90;;;;;;4253215;27;20070;-83
2022/11/19 04:07:00;;;;;;;7.70;3.42;;;-1.30;99.90;;;;;;4241951;28;20044;-83
2022/11/19 04:09:14;;;;;;;6.03;2.95;;;-1.30;99.90;;;;;;4240559;28;20130;-84
2022/11/19 04:11:16;;;;;;;5.35;2.95;;;-1.30;99.90;;;;;;4225874;28;20048;-83
2022/11/19 04:13:18;;;;;;;6.82;3.53;;;-1.30;99.90;;;;;;4218237;28;20060;-84
2022/11/19 04:15:20;;;;;;;8.18;3.55;;;-1.30;99.90;;;;;;4192114;28;20056;-83
2022/11/19 04:17:31;;;;;;;6.68;3.25;;;-1.30;99.90;;;;;;4203033;28;20040;-82
2022/11/19 04:19:39;;;;;;;5.70;3.28;;;-1.30;99.90;;;;;;4217321;28;20108;-84
2022/11/19 04:21:43;;;;;;;7.50;3.20;;;-1.40;99.90;;;;;;4208167;28;20052;-83
2022/11/19 04:23:46;;;;;;;6.40;3.20;;;-1.30;99.90;;;;;;4208205;28;20512;-83
2022/11/19 04:25:50;;;;;;;6.97;3.53;;;-1.40;99.90;;;;;;4208667;28;20076;-83
2022/11/19 04:27:51;;;;;;;7.82;3.10;;;-1.40;99.90;;;;;;4226212;28;20044;-83
2022/11/19 04:30:08;;;;;;;9.70;4.03;;;-0.70;99.90;;;;;;4208573;28;20049;-83
2022/11/19 04:32:10;;;;;;;6.60;2.67;;;-1.40;99.90;;;;;;4191878;28;20044;-83
2022/11/19 04:34:21;;;;;;;7.43;3.38;;;-1.40;99.90;;;;;;4212798;28;20071;-83
2022/11/19 04:36:25;;;;;;;8.98;2.90;;;-1.40;99.90;;;;;;4207691;28;20049;-83
2022/11/19 04:38:33;;;;;;;5.75;3.20;;;-1.40;99.90;;;;;;4191206;28;20037;-83
2022/11/19 04:40:53;;;;;;;9.85;5.00;;;-1.40;99.90;;;;;;4206294;28;20151;-83
2022/11/19 04:42:58;;;;;;;7.47;2.88;;;-1.40;99.90;;;;;;4225844;28;20055;-83
2022/11/19 04:45:00;;;;;;;5.35;2.72;;;-1.00;99.90;;;;;;4225206;28;20047;-83
2022/11/19 04:47:01;;;;;;;6.30;3.03;;;-1.40;99.90;;;;;;4222131;28;20044;-84
2022/11/19 04:49:04;;;;;;;8.23;3.05;;;-1.40;99.90;;;;;;4226544;28;20083;-84
2022/11/19 04:51:05;;;;;;;7.13;3.22;;;-1.40;99.90;;;;;;4208505;28;20052;-83
2022/11/19 04:53:09;;;;;;;5.20;2.97;;;-1.40;99.90;;;;;;4224091;28;20040;-83
2022/11/19 04:55:13;;;;;;;7.43;3.30;;;-1.40;99.90;;;;;;4205450;28;20508;-82
2022/11/19 04:57:15;;;;;;;5.35;3.15;;;-1.40;99.90;;;;;;4218815;28;20051;-84
2022/11/19 04:59:19;;;;;;;5.03;3.03;;;-1.40;99.90;;;;;;4210340;28;20077;-83
2022/11/19 05:01:24;;;;;;;6.40;3.10;;;-1.40;99.90;;;;;;4208244;28;20246;-84
2022/11/19 05:03:27;;;;;;;5.93;3.03;;;-1.40;99.90;;;;;;4224581;28;20416;-84
2022/11/19 05:05:33;;;;;;;7.32;3.00;;;-1.50;99.90;;;;;;4225527;28;20473;-83
2022/11/19 05:07:49;;;;;;;7.65;3.65;;;-1.50;99.90;;;;;;4226500;28;20126;-84
2022/11/19 05:09:56;;;;;;;7.40;3.38;;;-1.40;99.90;;;;;;4225247;28;20423;-83
2022/11/19 05:12:09;;;;;;;7.13;2.92;;;-1.50;99.90;;;;;;4221975;28;20044;-83
2022/11/19 05:14:44;;;;;;;6.05;3.15;;;-1.50;99.90;;;;;;4238621;28;20056;-83
2022/11/19 05:16:57;;;;;;;5.45;2.90;;;-1.50;99.90;;;;;;4242706;28;20044;-83
2022/11/19 05:19:00;;;;;;;6.32;2.90;;;-1.50;99.90;;;;;;4225361;28;20118;-83
2022/11/19 05:21:19;;;;;;;6.13;3.13;;;-1.50;99.90;;;;;;4220427;28;20040;-83
2022/11/19 05:23:27;;;;;;;5.70;2.72;;;-1.50;99.90;;;;;;4208246;28;20075;-83
2022/11/19 05:25:35;;;;;;;5.95;3.00;;;-1.50;99.90;;;;;;4208200;28;20045;-82
2022/11/19 05:27:50;;;;;;;7.40;3.70;;;-1.50;99.90;;;;;;4236058;28;20048;-83
2022/11/19 05:30:03;;;;;;;7.82;3.20;;;-1.50;99.90;;;;;;4241769;28;20362;-83
2022/11/19 05:32:07;;;;;;;5.93;3.33;;;-1.50;99.90;;;;;;4237302;28;20069;-83
2022/11/19 05:34:15;;;;;;;7.95;3.08;;;-1.50;99.90;;;;;;4225121;28;20040;-83
2022/11/19 05:36:15;;;;;;;6.17;2.90;;;-1.60;99.90;;;;;;4242680;28;20043;-83
2022/11/19 05:38:17;;;;;;;8.70;3.00;;;-0.80;99.90;;;;;;4243064;28;20054;-84
2022/11/19 05:40:24;;;;;;;5.63;2.67;;;-1.60;99.90;;;;;;4242185;28;20076;-84
2022/11/19 05:42:37;;;;;;;5.93;3.33;;;-1.60;99.90;;;;;;4243235;28;20048;-84
2022/11/19 05:44:38;;;;;;;7.80;2.80;;;-1.60;99.90;;;;;;4214942;28;20049;-84
2022/11/19 05:46:56;;;;;;;7.07;3.50;;;-1.60;99.90;;;;;;4218384;28;20078;-84
2022/11/19 05:49:11;;;;;;;7.75;3.92;;;-1.60;99.90;;;;;;4244119;28;20099;-82
2022/11/19 05:51:20;;;;;;;6.60;2.95;;;-1.60;99.90;;;;;;4244205;28;20047;-83
2022/11/19 05:53:26;;;;;;;5.93;3.30;;;-1.60;99.90;;;;;;4226096;28;20055;-83
2022/11/19 05:55:39;;;;;;;5.57;2.90;;;-1.60;99.90;;;;;;4242775;28;20055;-83
2022/11/19 05:57:48;;;;;;;7.35;3.45;;;-1.60;99.90;;;;;;4209763;28;20045;-83
2022/11/19 05:59:50;;;;;;;5.65;3.10;;;-1.60;99.90;;;;;;4208535;28;20044;-84
2022/11/19 06:01:54;;;;;;;8.38;3.83;;;-1.60;99.90;;;;;;4241094;28;20043;-83
2022/11/19 06:04:02;;;;;;;6.53;3.20;;;-1.60;99.90;;;;;;4227034;28;20043;-83
2022/11/19 06:06:07;;;;;;;6.30;3.53;;;-1.70;99.90;;;;;;4242203;28;20040;-83
2022/11/19 06:08:17;;;;;;;6.40;3.20;;;-1.20;99.90;;;;;;4242122;28;20121;-83
2022/11/19 06:10:19;;;;;;;6.50;3.03;;;-0.90;99.90;;;;;;4235625;28;20108;-84
2022/11/19 06:12:28;;;;;;;6.28;2.80;;;-1.70;99.90;;;;;;4243741;28;20049;-84
2022/11/19 06:14:35;;;;;;;;;;;-1.70;99.90;;;;;;4226425;28;20060;-83
2022/11/19 06:16:41;;;;;;;5.60;2.85;;;-1.70;99.90;;;;;;4228822;28;19916;-83
2022/11/19 06:18:59;;;;;;;5.85;3.35;;;-1.70;99.90;;;;;;4212544;28;20076;-85
2022/11/19 06:21:10;;;;;;;10.02;3.17;;;-1.70;99.90;;;;;;4199705;28;20076;-83
2022/11/19 06:23:14;;;;;;;9.80;3.35;;;-1.70;99.90;;;;;;4230114;28;20581;-83
2022/11/19 06:25:17;;;;;;;8.15;4.28;;;-1.70;99.90;;;;;;4211724;28;20090;-83
2022/11/19 06:27:18;;;;;;;6.78;3.05;;;-1.70;99.90;;;;;;4212211;28;20048;-83
2022/11/19 06:29:23;;;;;;;6.57;3.10;;;-1.70;99.90;;;;;;4230683;28;20075;-83
2022/11/19 06:31:24;;;;;;;6.50;3.35;;;-1.70;99.90;;;;;;4205107;28;20056;-83
2022/11/19 06:33:31;;;;;;;7.45;3.45;;;-1.70;99.90;;;;;;4213465;28;20045;-83
2022/11/19 06:35:46;;;;;;;8.55;3.60;;;-1.80;99.90;;;;;;4212878;28;20044;-83
2022/11/19 06:37:55;;;;;;;7.38;3.65;;;-1.80;99.90;;;;;;4222387;28;20051;-83
2022/11/19 06:40:08;;;;;;;6.05;2.88;;;-1.80;99.90;;;;;;4228767;28;20123;-85
2022/11/19 06:42:36;;;;;;;4.95;3.05;;;-1.80;99.90;;;;;;4230198;28;20119;-84
2022/11/19 06:44:49;;;;;;;5.20;2.97;;;-1.90;99.90;;;;;;4201335;28;20049;-84
2022/11/19 06:46:57;;;;;;;7.30;4.03;;;-1.90;99.90;;;;;;4222551;28;20056;-84
2022/11/19 06:49:02;;;;;;;5.80;3.15;;;-1.90;99.90;;;;;;4228311;28;20392;-84
2022/11/19 06:51:30;;;;;;;5.85;2.90;;;-1.90;99.90;;;;;;4229519;28;20598;-83
2022/11/19 06:53:34;;;;;;;6.30;3.05;;;-1.90;99.90;;;;;;4229365;28;20104;-83
2022/11/19 06:55:37;;;;;;;5.25;3.03;;;-1.90;99.90;;;;;;4208333;28;20102;-84
2022/11/19 06:57:45;;;;;;;6.00;3.13;;;-1.80;99.90;;;;;;4217130;28;20483;-82
2022/11/19 06:59:52;;;;;;;6.07;3.20;;;-1.90;99.90;;;;;;4211283;28;20040;-83
2022/11/19 07:02:11;;;;;;;6.68;3.85;;;-1.90;99.90;;;;;;4223792;28;20040;-83
2022/11/19 07:04:16;;;;;;;5.90;3.15;;;-1.90;99.90;;;;;;4228390;28;20081;-83
2022/11/19 07:06:20;;;;;;;8.57;3.40;;;-1.40;99.90;;;;;;4229609;28;20050;-83
2022/11/19 07:08:39;;;;;;;10.07;3.00;;;-1.30;99.90;;;;;;4229168;28;20062;-83
2022/11/19 07:11:00;;;;;;;6.60;3.25;;;-1.90;99.90;;;;;;4227863;28;20143;-84
2022/11/19 07:13:04;;;;;;;8.15;3.88;;;-1.90;99.90;;;;;;4232421;28;20055;-83
2022/11/19 07:15:33;;;;;;;5.47;3.35;;;-1.90;99.90;;;;;;4245470;28;20065;-82
2022/11/19 07:17:43;;;;;;;7.75;3.47;;;-1.90;99.90;;;;;;4264060;27;20068;-83
2022/11/19 07:19:45;;;;;;;9.73;3.28;;;-1.90;99.90;;;;;;4227600;28;20055;-83
2022/11/19 07:21:51;;;;;;;6.22;3.28;;;-1.90;99.90;;;;;;4256951;27;20031;-83
2022/11/19 07:23:57;;;;;;;8.73;3.78;;;-1.90;99.90;;;;;;4243984;28;20063;-83
2022/11/19 07:26:01;;;;;;;5.57;3.17;;;-1.90;99.90;;;;;;4243808;28;20077;-83
2022/11/19 07:28:09;;;;;;;8.73;3.40;;;-1.90;99.90;;;;;;4227228;28;20039;-83
2022/11/19 07:30:16;;;;;;;9.07;3.60;;;-1.90;99.90;;;;;;4243621;28;20491;-83
2022/11/19 07:32:19;;;;;;;6.28;3.50;;;-1.90;99.90;;;;;;4228396;28;20048;-83
2022/11/19 07:34:21;;;;;;;9.82;4.10;;;-1.80;99.90;;;;;;4227313;28;20044;-83
2022/11/19 07:36:26;;;;;;;7.22;3.38;;;-1.80;99.90;;;;;;4259452;27;20099;-83
2022/11/19 07:38:28;;;;;;;7.97;3.58;;;-1.80;99.90;;;;;;4243660;28;20047;-84
2022/11/19 07:40:32;;;;;;;6.50;3.17;;;-1.80;99.90;;;;;;4242597;28;20048;-83
2022/11/19 07:42:52;;;;;;;7.03;2.90;;;-1.80;99.90;;;;;;4226988;28;20124;-84
2022/11/19 07:44:59;;;;;;;7.28;3.30;;;-1.80;99.90;;;;;;4261620;27;20039;-82
2022/11/19 07:47:14;;;;;;;7.32;3.22;;;-1.70;99.90;;;;;;4226865;28;20052;-83
2022/11/19 07:49:21;;;;;;;10.00;3.40;;;-1.70;99.90;;;;;;4261246;27;20079;-83
2022/11/19 07:51:24;;;;;;;5.88;3.30;;;-1.70;99.90;;;;;;4224778;28;20052;-83
2022/11/19 07:53:26;;;;;;;5.38;3.05;;;-1.70;99.90;;;;;;4225360;28;20086;-84
2022/11/19 07:55:34;;;;;;;7.55;3.47;;;-1.60;99.90;;;;;;4227251;28;20052;-83
2022/11/19 07:57:40;;;;;;;6.03;3.03;;;-0.80;99.90;;;;;;4227269;28;20052;-84
2022/11/19 07:59:42;;;;;;;5.38;2.70;;;-1.60;99.90;;;;;;4209480;28;20049;-84
2022/11/19 08:01:52;;;;;;;6.05;3.08;;;-1.60;99.90;;;;;;4236141;28;20055;-85
2022/11/19 08:03:56;;;;;;;7.45;3.40;;;-1.50;99.90;;;;;;4244282;28;20040;-84
2022/11/19 08:06:05;;;;;;;6.60;3.50;;;-1.50;99.90;;;;;;4261975;27;20050;-84
2022/11/19 08:08:09;;;;;;;7.38;3.55;;;-1.50;99.90;;;;;;4226146;28;20044;-83
2022/11/19 08:10:16;;;;;;;7.18;3.75;;;-1.50;99.90;;;;;;4244254;28;20045;-83
2022/11/19 08:12:20;;;;;;;6.78;3.80;;;-1.50;99.90;;;;;;4227143;28;20047;-83
2022/11/19 08:14:27;;;;;;;7.95;3.80;;;-1.40;99.90;;;;;;4225643;28;20475;-83
2022/11/19 08:19:08;;;;;;;5.15;3.05;;;-1.40;99.90;;;;;;4242771;28;20055;-83
2022/11/19 08:21:11;;;;;;;8.60;4.57;;;-1.30;99.90;;;;;;4242732;28;20119;-83
2022/11/19 08:23:23;;;;;;;5.68;3.28;;;-1.10;99.90;;;;;;4241809;28;20055;-83
2022/11/19 08:25:31;;;;;;;5.38;3.22;;;-1.20;99.90;;;;;;4232457;28;20066;-83
2022/11/19 08:27:34;;;;;;;6.72;3.58;;;-1.10;99.90;;;;;;4225396;28;20044;-84
2022/11/19 08:29:35;;;;;;;6.38;3.25;;;-0.90;99.90;;;;;;4236402;28;20044;-84
2022/11/19 08:31:38;;;;;;;7.68;3.17;;;-0.60;99.90;;;;;;4224097;28;20066;-82
2022/11/19 08:33:48;;;;;;;6.15;3.47;;;-0.40;99.90;;;;;;4237272;28;20047;-85
2022/11/19 08:35:55;;;;;;;8.32;4.03;;;0.50;99.90;;;;;;4220458;28;20048;-85
2022/11/19 08:37:58;;;;;;;7.05;3.40;;;0.10;99.90;;;;;;4227459;28;20040;-84
2022/11/19 08:39:59;;;;;;;9.80;4.03;;;0.30;99.90;;;;;;4234610;28;20043;-84
2022/11/19 08:44:19;;;;;;;8.57;3.17;;;1.30;99.90;;;;;;4233128;28;20043;-84
2022/11/19 08:46:22;;;;;;;7.80;4.28;;;1.90;99.90;;;;;;4230521;28;20383;-84
2022/11/19 08:48:23;;;;;;;6.63;3.40;;;2.50;99.90;;;;;;4232118;28;20079;-84
2022/11/19 08:50:25;;;;;;;7.05;3.95;;;3.00;99.90;;;;;;4229775;28;20062;-86
2022/11/19 08:52:27;;;;;;;5.70;3.40;;;3.40;99.90;;;;;;4231556;28;20117;-85
2022/11/19 08:54:28;;;;;;;7.72;3.90;;;3.90;99.90;;;;;;4228573;28;20096;-84
2022/11/19 08:56:29;;;;;;;5.68;3.67;;;4.90;99.90;;;;;;4231273;28;20412;-85
2022/11/19 08:58:29;;;;;;;4.90;3.10;;;4.90;99.90;;;;;;4229663;28;20023;-84
2022/11/19 09:00:32;;;;;;;5.88;3.15;;;5.50;99.70;;;;;;4229608;28;20083;-84
2022/11/19 09:02:33;;;;;;;5.50;3.22;;;6.30;99.00;;;;;;4229322;28;20043;-84
2022/11/19 09:04:36;;;;;;;7.65;3.55;;;7.00;98.10;;;;;;4230654;28;20457;-84
2022/11/19 09:06:37;;;;;;;8.65;3.92;;;7.60;97.30;;;;;;4228527;28;20036;-88
2022/11/19 09:08:39;;;;;;;6.70;3.03;;;8.20;97.00;;;;;;4231163;28;20100;-85
2022/11/19 09:10:40;;;;;;;6.43;3.60;;;8.60;96.50;;;;;;4228025;28;20058;-85
2022/11/19 09:12:41;;;;;;;5.30;3.10;;;8.90;95.90;;;;;;4231237;27;20404;-86
2022/11/19 09:14:43;;;;;;;5.57;3.30;;;9.50;95.30;;;;;;4228214;28;20043;-85
2022/11/19 09:16:45;;;;;;;7.45;3.22;;;9.80;94.90;;;;;;4248468;27;20039;-86
2022/11/19 09:18:45;;;;;;;8.23;3.55;;;10.20;94.30;;;;;;4249664;27;20046;-84
2022/11/19 09:20:54;;;;;;;6.10;3.30;;;10.60;94.10;;;;;;4248913;27;20035;-85
2022/11/19 09:22:55;;;;;;;8.68;3.78;;;10.90;92.60;;;;;;4251365;27;20042;-85
2022/11/19 09:24:56;;;;;;;4.90;3.30;;;10.90;92.70;;;;;;4248215;27;20067;-85
2022/11/19 09:26:57;;;;;;;6.72;4.00;;;10.90;92.10;;;;;;4249707;28;20096;-86
2022/11/19 09:28:59;;;;;;;6.15;3.45;;;10.60;92.20;;;;;;4250076;28;20938;-86
2022/11/19 09:31:05;;;;;;;5.65;3.63;;;10.40;91.50;;;;;;4233633;28;20063;-87
2022/11/19 09:33:05;;;;;;;4.60;2.80;;;9.70;91.50;;;;;;4247395;28;20043;-84
2022/11/19 09:35:06;;;;;;;6.00;3.65;;;10.20;91.10;;;;;;4249496;28;20043;-85
2022/11/19 09:37:08;;;;;;;4.53;2.92;;;10.20;91.70;;;;;;4229006;28;20040;-86
2022/11/19 09:39:10;;;;;;;6.18;3.60;;;10.00;91.50;;;;;;4232124;28;20526;-85
2022/11/19 09:41:33;;;;;;;7.90;3.58;;;9.90;91.70;;;;;;4229998;28;20051;-85
2022/11/19 09:43:48;;;;;;;5.85;3.13;;;9.90;92.00;;;;;;4229883;28;20047;-87
2022/11/19 09:45:57;;;;;;;4.90;3.58;;;9.60;92.00;;;;;;4215334;28;20063;-86
2022/11/19 09:48:31;;;;;;;4.75;2.90;;;9.10;91.90;;;;;;4247321;27;20376;-86
2022/11/19 09:50:44;;;;;;;5.00;3.67;;;8.70;90.00;;;;;;4250138;27;20083;-84
2022/11/19 09:52:57;;;;;;;6.00;3.20;;;8.30;93.20;;;;;;4249218;27;20047;-85
2022/11/19 09:54:57;;;;;;;4.18;2.92;;;7.90;93.40;;;;;;4215685;28;20416;-84
2022/11/19 09:57:04;;;;;;;6.30;3.35;;;7.60;93.70;;;;;;4230302;28;20051;-84
2022/11/19 09:59:35;;;;;;;6.05;3.42;;;7.40;93.30;;;;;;4211103;28;20052;-86
2022/11/19 10:01:36;;;;;;;5.78;3.20;;;7.40;92.00;;;;;;4222942;28;20055;-85
2022/11/19 10:03:39;;;;;;;7.25;3.45;;;7.30;94.10;;;;;;4215431;28;20044;-86
2022/11/19 10:05:53;;;;;;;6.72;3.13;;;7.30;94.50;;;;;;4245836;27;20123;-87
2022/11/19 10:08:08;;;;;;;5.75;3.05;;;7.30;94.50;;;;;;4220082;28;20453;-85
2022/11/19 10:10:33;;;;;;;5.68;3.55;;;7.50;93.80;;;;;;4243640;27;20045;-85
2022/11/19 10:12:48;;;;;;;6.72;3.05;;;7.60;93.60;;;;;;4233481;28;20043;-86
2022/11/19 10:14:53;;;;;;;5.15;2.90;;;7.60;94.50;;;;;;4212648;28;20055;-85
2022/11/19 10:17:15;;;;;;;5.07;2.88;;;7.80;94.40;;;;;;4244181;27;20079;-86
2022/11/19 10:19:36;;;;;;;5.43;3.13;;;7.70;91.30;;;;;;4213952;28;20052;-86
2022/11/19 10:21:58;;;;;;;4.97;2.88;;;7.60;91.90;;;;;;4198886;27;20078;-86
2022/11/19 10:24:11;;;;;;;7.13;2.95;;;7.80;93.00;;;;;;4251376;27;20047;-86
2022/11/19 10:26:16;;;;;;;3.67;2.78;;;7.80;92.60;;;;;;4251522;27;20046;-86
2022/11/19 10:28:23;;;;;;;5.45;2.85;;;7.80;93.00;;;;;;4232628;28;20052;-87
2022/11/19 10:30:27;;;;;;;5.88;3.00;;;7.90;92.70;;;;;;4252193;27;20043;-86
2022/11/19 10:32:31;;;;;;;4.55;3.00;;;8.00;93.30;;;;;;4231415;28;20087;-87
2022/11/19 10:34:36;;;;;;;5.53;3.13;;;7.90;93.10;;;;;;4232887;28;20043;-87
2022/11/19 10:37:02;;;;;;;8.25;3.13;;;7.90;92.20;;;;;;4215073;28;20055;-86
2022/11/19 10:39:09;;;;;;;4.75;2.90;;;7.80;92.00;;;;;;4232350;28;20443;-87
2022/11/19 10:41:16;;;;;;;5.25;3.33;;;8.10;91.80;;;;;;4230223;28;20481;-87
2022/11/19 10:43:25;;;;;;;5.93;3.17;;;7.80;91.80;;;;;;4232187;28;20596;-87
2022/11/19 10:45:28;;;;;;;5.15;3.17;;;7.90;91.40;;;;;;4230427;28;20081;-87
2022/11/19 10:47:32;;;;;;;5.70;3.25;;;8.00;91.50;;;;;;4231773;28;20083;-86
2022/11/19 10:49:38;;;;;;;5.07;3.15;;;8.30;91.40;;;;;;4247012;27;20070;-86
2022/11/19 10:51:40;;;;;;;4.50;2.72;;;8.50;91.30;;;;;;4232158;28;20125;-87
2022/11/19 10:53:42;;;;;;;4.15;2.63;;;8.70;91.60;;;;;;4211091;28;20043;-87
2022/11/19 10:55:47;;;;;;;4.80;3.10;;;8.50;91.00;;;;;;4231229;28;20044;-86
2022/11/19 10:57:51;;;;;;;5.03;2.65;;;8.60;90.60;;;;;;4229567;28;20509;-86
2022/11/19 10:59:53;;;;;;;5.15;2.90;;;8.70;90.50;;;;;;4248334;27;20051;-87
2022/11/19 11:02:02;;;;;;;5.70;3.10;;;9.00;90.70;;;;;;4244250;27;20384;-86
2022/11/19 11:04:10;;;;;;;5.63;3.30;;;9.20;90.30;;;;;;4240819;27;20094;-86
2022/11/19 11:06:11;;;;;;;4.55;2.60;;;9.20;90.40;;;;;;4242888;27;20407;-86
2022/11/19 11:08:11;;;;;;;4.65;2.88;;;9.20;90.60;;;;;;4231766;28;20058;-88
2022/11/19 11:10:43;;;;;;;5.13;3.28;;;9.20;90.20;;;;;;4246523;27;20078;-87
2022/11/19 11:15:20;;;;;;;4.50;2.80;;;9.70;90.00;;;;;;4229554;28;20519;-86
2022/11/19 11:17:27;;;;;;;5.70;2.70;;;9.70;87.00;;;;;;4222946;28;20424;-86
2022/11/19 11:19:29;;;;;;;5.00;2.92;;;9.70;88.50;;;;;;4231215;28;20360;-86
2022/11/19 11:21:37;;;;;;;6.15;3.15;;;9.60;88.00;;;;;;4214377;28;20604;-86
2022/11/19 11:23:52;;;;;;;4.80;3.00;;;9.80;87.80;;;;;;4229895;28;20048;-85
2022/11/19 11:26:04;;;;;;;4.05;2.70;;;10.00;85.30;;;;;;4248955;27;20130;-86
2022/11/19 11:28:16;;;;;;;4.93;2.50;;;10.00;87.00;;;;;;4212436;28;20463;-85
2022/11/19 11:30:17;;;;;;;5.22;3.20;;;10.00;85.50;;;;;;4229290;28;20101;-85